Terminal Aerodrome Forecast
Issued by NWS

Home | Current Version | Previous Version | Text Only | Print | Product List | Glossary On
Versions: 1 2 3 4 5 6 7 8 9 10 11 12 13 14 15 16 17 18 19 20 21 22 23 24 25 26 27 28
000
FTUS45 KLKN 011729
TAFEKO
TAF
KEKO 011729Z 0118/0218 04014G24KT P6SM SCT060 SCT150
     FM012100 06011G20KT P6SM SCT060 BKN150
     FM020200 08007KT P6SM SCT150
     FM021600 VRB04KT P6SM FEW060 SCT150=

USA.gov is the U.S. government's official web portal to all federal, state and local government web resources and services.